Port Hedland International Airport
YPPD : now visible

Airfield :











YOU CAN JOIN US ON...

 
LOGIN :

Register | Disclaimer

   EN    FR    IT 

 









Legend :    VFR   Marginal VFR   IFR   Intensive IFR   Very Intensive IFR
Visi :
Ceiling :
>= 8 km
>= 3000ft
5 to 8 km
1000 to 3000 ft
1500m to 5 km
500 to 1000 ft
800 to 1500m
200 to 500 ft
< 800m
< 200 ft
Symbols :   Thunderstorms  Fog  Heavy snow  Heavy precipitations  Wind > 20 kt






- Airport Elevation : 33 ft
- IATA code : PHE


YPPD - Port Hedland International

CURRENT METAR :
  • 141130Z AUTO 18008KT 9999 // NCD 28/22 Q1013 RF00.0/000.0

EXPIRED METARs :
  • 141100Z AUTO 19007KT 9999 // NCD 29/22 Q1012
  • 141030Z AUTO 19009KT 9999 // NCD 29/21 Q1012 RF00.0/000.0
  • 141000Z AUTO 20010KT 9999 // NCD 30/22 Q1011 RF00.0/000.0
  • 140930Z AUTO 21011KT 9999 // NCD 32/20 Q1011 RF00.0/000.0
  • 140900Z AUTO 24012KT 9999 // NCD 33/21 Q1011 RF00.0/000.0

TAF TAF YPPD
Valid from the 14 at 12:00 until the 15 at 12:00 UTC


141114Z 1412/1512 27008KT CAVOK
FM141400 16010KT CAVOK
FM150000 13014KT CAVOK
FM150500 15010KT CAVOK
YMMM FIR / Oceania



MET'MAP, your aeronautical weather chart ! - Copyright ORBIFLY December 2007 - Disclaimer

ORBIFLY MET'MAP TEAM :

Programming & Development : Alexandra Zaïnal
Concept & original design : Baudouin d'Aumeries
Assistance for programming : Marc-Olivier Méhu
Technical & hardware support : Manuel Goepfert

Contact : metmap@orbifly.com




SOURCES & CREDITS :

   NOAA       Earth
Advisory